sensor_id;sensor_type;location;lat;lon;timestamp;temperature;humidity
25450;DHT22;13371;52.080;5.624;2022-08-19T00:00:44;21.90;90.60
25450;DHT22;13371;52.080;5.624;2022-08-19T00:03:10;21.90;90.50
25450;DHT22;13371;52.080;5.624;2022-08-19T00:05:35;22.00;90.50
25450;DHT22;13371;52.080;5.624;2022-08-19T00:08:01;22.00;90.40
25450;DHT22;13371;52.080;5.624;2022-08-19T00:10:27;22.00;90.30
25450;DHT22;13371;52.080;5.624;2022-08-19T00:12:53;21.90;90.40
25450;DHT22;13371;52.080;5.624;2022-08-19T00:15:20;22.00;90.40
25450;DHT22;13371;52.080;5.624;2022-08-19T00:17:46;21.90;90.50
25450;DHT22;13371;52.080;5.624;2022-08-19T00:20:14;21.90;90.70
25450;DHT22;13371;52.080;5.624;2022-08-19T00:22:43;21.90;90.80
25450;DHT22;13371;52.080;5.624;2022-08-19T00:25:09;21.80;90.80
25450;DHT22;13371;52.080;5.624;2022-08-19T00:27:35;21.80;90.80
25450;DHT22;13371;52.080;5.624;2022-08-19T00:30:01;21.90;90.80
25450;DHT22;13371;52.080;5.624;2022-08-19T00:32:29;21.90;90.80
25450;DHT22;13371;52.080;5.624;2022-08-19T00:34:54;21.80;90.80
25450;DHT22;13371;52.080;5.624;2022-08-19T00:37:22;21.80;91.00
25450;DHT22;13371;52.080;5.624;2022-08-19T00:39:49;21.90;90.90
25450;DHT22;13371;52.080;5.624;2022-08-19T00:42:16;21.80;91.00
25450;DHT22;13371;52.080;5.624;2022-08-19T00:44:42;21.70;91.00
25450;DHT22;13371;52.080;5.624;2022-08-19T00:47:08;21.80;91.10
25450;DHT22;13371;52.080;5.624;2022-08-19T00:49:40;21.70;91.10
25450;DHT22;13371;52.080;5.624;2022-08-19T00:52:09;21.80;91.00
25450;DHT22;13371;52.080;5.624;2022-08-19T00:54:38;21.60;91.10
25450;DHT22;13371;52.080;5.624;2022-08-19T00:57:08;21.60;91.30
25450;DHT22;13371;52.080;5.624;2022-08-19T00:59:35;21.70;91.10
25450;DHT22;13371;52.080;5.624;2022-08-19T01:02:02;21.70;91.00
25450;DHT22;13371;52.080;5.624;2022-08-19T01:04:27;21.70;91.00
25450;DHT22;13371;52.080;5.624;2022-08-19T01:06:53;21.60;91.10
25450;DHT22;13371;52.080;5.624;2022-08-19T01:09:18;21.70;91.00
25450;DHT22;13371;52.080;5.624;2022-08-19T01:11:44;21.60;90.90
25450;DHT22;13371;52.080;5.624;2022-08-19T01:14:10;21.60;91.10
25450;DHT22;13371;52.080;5.624;2022-08-19T01:16:38;21.50;91.30
25450;DHT22;13371;52.080;5.624;2022-08-19T01:21:55;21.40;91.40
25450;DHT22;13371;52.080;5.624;2022-08-19T01:24:21;21.30;91.40
25450;DHT22;13371;52.080;5.624;2022-08-19T01:26:47;21.30;91.20
25450;DHT22;13371;52.080;5.624;2022-08-19T01:29:13;21.20;91.40
25450;DHT22;13371;52.080;5.624;2022-08-19T01:31:39;21.30;91.30
25450;DHT22;13371;52.080;5.624;2022-08-19T01:34:05;21.40;91.10
25450;DHT22;13371;52.080;5.624;2022-08-19T01:36:33;21.30;91.10
25450;DHT22;13371;52.080;5.624;2022-08-19T01:39:00;21.20;91.00
25450;DHT22;13371;52.080;5.624;2022-08-19T01:41:26;21.20;91.20
25450;DHT22;13371;52.080;5.624;2022-08-19T01:43:53;21.30;91.10
25450;DHT22;13371;52.080;5.624;2022-08-19T01:46:19;21.30;91.00
25450;DHT22;13371;52.080;5.624;2022-08-19T01:48:46;21.10;90.90
25450;DHT22;13371;52.080;5.624;2022-08-19T01:51:13;20.80;91.40
25450;DHT22;13371;52.080;5.624;2022-08-19T01:53:39;20.90;91.50
25450;DHT22;13371;52.080;5.624;2022-08-19T01:56:05;21.00;91.20
25450;DHT22;13371;52.080;5.624;2022-08-19T01:58:36;20.90;91.30
25450;DHT22;13371;52.080;5.624;2022-08-19T02:01:04;20.90;91.10
25450;DHT22;13371;52.080;5.624;2022-08-19T02:03:30;21.00;91.10
25450;DHT22;13371;52.080;5.624;2022-08-19T02:05:58;21.00;91.00
25450;DHT22;13371;52.080;5.624;2022-08-19T02:08:26;21.10;90.80
25450;DHT22;13371;52.080;5.624;2022-08-19T02:10:52;21.00;90.80
25450;DHT22;13371;52.080;5.624;2022-08-19T02:13:18;20.90;90.80
25450;DHT22;13371;52.080;5.624;2022-08-19T02:15:44;20.90;90.90
25450;DHT22;13371;52.080;5.624;2022-08-19T02:18:09;20.80;90.90
25450;DHT22;13371;52.080;5.624;2022-08-19T02:20:37;20.90;90.90
25450;DHT22;13371;52.080;5.624;2022-08-19T02:23:04;20.80;90.90
25450;DHT22;13371;52.080;5.624;2022-08-19T02:25:30;20.90;90.80
25450;DHT22;13371;52.080;5.624;2022-08-19T02:27:55;20.80;90.80
25450;DHT22;13371;52.080;5.624;2022-08-19T02:30:22;20.30;91.40
25450;DHT22;13371;52.080;5.624;2022-08-19T02:32:47;20.40;91.70
25450;DHT22;13371;52.080;5.624;2022-08-19T02:35:14;20.50;91.40
25450;DHT22;13371;52.080;5.624;2022-08-19T02:37:41;20.40;91.40
25450;DHT22;13371;52.080;5.624;2022-08-19T02:40:26;20.50;91.30
25450;DHT22;13371;52.080;5.624;2022-08-19T02:42:52;20.50;91.10
25450;DHT22;13371;52.080;5.624;2022-08-19T02:45:18;20.60;91.00
25450;DHT22;13371;52.080;5.624;2022-08-19T02:47:43;20.60;91.00
25450;DHT22;13371;52.080;5.624;2022-08-19T02:50:09;20.50;91.00
25450;DHT22;13371;52.080;5.624;2022-08-19T02:52:35;20.50;91.00
25450;DHT22;13371;52.080;5.624;2022-08-19T02:55:01;20.60;91.00
25450;DHT22;13371;52.080;5.624;2022-08-19T02:57:27;20.50;90.90
25450;DHT22;13371;52.080;5.624;2022-08-19T02:59:53;20.50;91.00
25450;DHT22;13371;52.080;5.624;2022-08-19T03:02:19;20.30;91.20
25450;DHT22;13371;52.080;5.624;2022-08-19T03:04:45;20.30;91.20
25450;DHT22;13371;52.080;5.624;2022-08-19T03:07:13;20.10;91.60
25450;DHT22;13371;52.080;5.624;2022-08-19T03:09:39;20.20;91.40
25450;DHT22;13371;52.080;5.624;2022-08-19T03:12:05;20.40;91.20
25450;DHT22;13371;52.080;5.624;2022-08-19T03:14:34;20.00;92.40
25450;DHT22;13371;52.080;5.624;2022-08-19T03:17:00;20.10;92.10
25450;DHT22;13371;52.080;5.624;2022-08-19T03:19:26;20.10;91.80
25450;DHT22;13371;52.080;5.624;2022-08-19T03:21:52;20.20;92.30
25450;DHT22;13371;52.080;5.624;2022-08-19T03:24:19;20.30;91.50
25450;DHT22;13371;52.080;5.624;2022-08-19T03:26:53;20.00;92.20
25450;DHT22;13371;52.080;5.624;2022-08-19T03:29:23;20.30;91.90
25450;DHT22;13371;52.080;5.624;2022-08-19T03:31:49;20.00;92.10
25450;DHT22;13371;52.080;5.624;2022-08-19T03:34:20;20.00;92.00
25450;DHT22;13371;52.080;5.624;2022-08-19T03:36:46;19.80;92.80
25450;DHT22;13371;52.080;5.624;2022-08-19T03:39:13;20.00;92.50
25450;DHT22;13371;52.080;5.624;2022-08-19T03:41:41;20.10;92.20
25450;DHT22;13371;52.080;5.624;2022-08-19T03:44:06;20.00;92.50
25450;DHT22;13371;52.080;5.624;2022-08-19T03:46:34;20.00;92.60
25450;DHT22;13371;52.080;5.624;2022-08-19T03:49:02;20.10;92.20
25450;DHT22;13371;52.080;5.624;2022-08-19T03:51:36;20.00;92.00
25450;DHT22;13371;52.080;5.624;2022-08-19T03:54:09;19.30;93.10
25450;DHT22;13371;52.080;5.624;2022-08-19T03:56:36;18.80;94.10
25450;DHT22;13371;52.080;5.624;2022-08-19T03:59:03;18.50;95.30
25450;DHT22;13371;52.080;5.624;2022-08-19T04:01:29;18.90;94.60
25450;DHT22;13371;52.080;5.624;2022-08-19T04:03:56;19.20;94.20
25450;DHT22;13371;52.080;5.624;2022-08-19T04:06:28;19.30;93.90
25450;DHT22;13371;52.080;5.624;2022-08-19T04:08:54;19.50;93.50
25450;DHT22;13371;52.080;5.624;2022-08-19T04:11:23;19.60;93.20
25450;DHT22;13371;52.080;5.624;2022-08-19T04:13:50;19.80;93.00
25450;DHT22;13371;52.080;5.624;2022-08-19T04:16:17;19.70;92.70
25450;DHT22;13371;52.080;5.624;2022-08-19T04:18:43;19.90;92.60
25450;DHT22;13371;52.080;5.624;2022-08-19T04:21:17;19.80;92.30
25450;DHT22;13371;52.080;5.624;2022-08-19T04:23:42;19.80;92.50
25450;DHT22;13371;52.080;5.624;2022-08-19T04:26:13;19.40;92.70
25450;DHT22;13371;52.080;5.624;2022-08-19T04:28:39;19.40;93.00
25450;DHT22;13371;52.080;5.624;2022-08-19T04:31:05;19.60;92.70
25450;DHT22;13371;52.080;5.624;2022-08-19T04:33:30;19.70;92.50
25450;DHT22;13371;52.080;5.624;2022-08-19T04:35:56;19.70;92.30
25450;DHT22;13371;52.080;5.624;2022-08-19T04:38:23;19.80;92.10
25450;DHT22;13371;52.080;5.624;2022-08-19T04:40:50;19.80;91.90
25450;DHT22;13371;52.080;5.624;2022-08-19T04:43:37;19.80;91.90
25450;DHT22;13371;52.080;5.624;2022-08-19T04:46:08;19.80;91.90
25450;DHT22;13371;52.080;5.624;2022-08-19T04:48:34;19.80;92.00
25450;DHT22;13371;52.080;5.624;2022-08-19T04:51:00;19.80;92.00
25450;DHT22;13371;52.080;5.624;2022-08-19T04:53:28;19.80;91.90
25450;DHT22;13371;52.080;5.624;2022-08-19T04:55:59;19.80;92.00
25450;DHT22;13371;52.080;5.624;2022-08-19T04:58:26;19.80;91.90
25450;DHT22;13371;52.080;5.624;2022-08-19T05:00:53;19.70;91.90
25450;DHT22;13371;52.080;5.624;2022-08-19T05:03:19;19.70;92.10
25450;DHT22;13371;52.080;5.624;2022-08-19T05:05:45;19.70;91.90
25450;DHT22;13371;52.080;5.624;2022-08-19T05:08:14;19.80;91.80
25450;DHT22;13371;52.080;5.624;2022-08-19T05:10:44;19.80;91.90
25450;DHT22;13371;52.080;5.624;2022-08-19T05:13:10;19.80;92.10
25450;DHT22;13371;52.080;5.624;2022-08-19T05:15:36;19.50;92.30
25450;DHT22;13371;52.080;5.624;2022-08-19T05:18:02;19.40;93.10
25450;DHT22;13371;52.080;5.624;2022-08-19T05:20:46;19.60;92.90
25450;DHT22;13371;52.080;5.624;2022-08-19T05:23:30;19.60;92.80
25450;DHT22;13371;52.080;5.624;2022-08-19T05:25:55;19.60;92.80
25450;DHT22;13371;52.080;5.624;2022-08-19T05:28:21;19.40;93.30
25450;DHT22;13371;52.080;5.624;2022-08-19T05:30:47;19.40;93.60
25450;DHT22;13371;52.080;5.624;2022-08-19T05:33:14;19.50;93.30
25450;DHT22;13371;52.080;5.624;2022-08-19T05:35:39;19.40;93.80
25450;DHT22;13371;52.080;5.624;2022-08-19T05:38:07;19.30;93.80
25450;DHT22;13371;52.080;5.624;2022-08-19T05:40:35;19.50;93.70
25450;DHT22;13371;52.080;5.624;2022-08-19T05:43:02;19.50;94.20
25450;DHT22;13371;52.080;5.624;2022-08-19T05:45:28;19.80;93.70
25450;DHT22;13371;52.080;5.624;2022-08-19T05:47:54;19.90;93.50
25450;DHT22;13371;52.080;5.624;2022-08-19T05:50:20;19.80;93.90
25450;DHT22;13371;52.080;5.624;2022-08-19T05:52:45;19.70;94.50
25450;DHT22;13371;52.080;5.624;2022-08-19T05:55:11;19.70;94.30
25450;DHT22;13371;52.080;5.624;2022-08-19T05:57:37;20.00;94.10
25450;DHT22;13371;52.080;5.624;2022-08-19T06:00:04;20.10;94.10
25450;DHT22;13371;52.080;5.624;2022-08-19T06:02:33;20.10;94.00
25450;DHT22;13371;52.080;5.624;2022-08-19T06:05:00;20.40;93.70
25450;DHT22;13371;52.080;5.624;2022-08-19T06:07:26;20.30;94.30
25450;DHT22;13371;52.080;5.624;2022-08-19T06:09:54;20.30;94.50
25450;DHT22;13371;52.080;5.624;2022-08-19T06:12:20;20.60;94.40
25450;DHT22;13371;52.080;5.624;2022-08-19T06:14:51;20.70;94.10
25450;DHT22;13371;52.080;5.624;2022-08-19T06:17:18;20.70;94.60
25450;DHT22;13371;52.080;5.624;2022-08-19T06:19:43;21.10;94.40
25450;DHT22;13371;52.080;5.624;2022-08-19T06:22:09;21.00;94.20
25450;DHT22;13371;52.080;5.624;2022-08-19T06:24:37;21.00;94.60
25450;DHT22;13371;52.080;5.624;2022-08-19T06:27:03;21.00;94.70
25450;DHT22;13371;52.080;5.624;2022-08-19T06:29:30;21.00;94.80
25450;DHT22;13371;52.080;5.624;2022-08-19T06:31:59;20.90;95.30
25450;DHT22;13371;52.080;5.624;2022-08-19T06:34:27;21.30;94.90
25450;DHT22;13371;52.080;5.624;2022-08-19T06:36:54;21.30;94.80
25450;DHT22;13371;52.080;5.624;2022-08-19T06:39:23;21.30;94.90
25450;DHT22;13371;52.080;5.624;2022-08-19T06:41:50;21.30;94.90
25450;DHT22;13371;52.080;5.624;2022-08-19T06:44:19;21.30;95.00
25450;DHT22;13371;52.080;5.624;2022-08-19T06:46:45;21.40;95.00
25450;DHT22;13371;52.080;5.624;2022-08-19T06:49:11;21.50;95.00
25450;DHT22;13371;52.080;5.624;2022-08-19T06:51:41;21.40;95.00
25450;DHT22;13371;52.080;5.624;2022-08-19T06:54:07;21.50;95.20
25450;DHT22;13371;52.080;5.624;2022-08-19T06:56:32;21.60;95.10
25450;DHT22;13371;52.080;5.624;2022-08-19T06:59:03;21.90;95.00
25450;DHT22;13371;52.080;5.624;2022-08-19T07:01:30;21.80;94.80
25450;DHT22;13371;52.080;5.624;2022-08-19T07:03:58;21.80;94.70
25450;DHT22;13371;52.080;5.624;2022-08-19T07:06:26;21.90;94.60
25450;DHT22;13371;52.080;5.624;2022-08-19T07:08:52;22.20;94.50
25450;DHT22;13371;52.080;5.624;2022-08-19T07:11:18;21.90;94.40
25450;DHT22;13371;52.080;5.624;2022-08-19T07:13:44;22.00;94.70
25450;DHT22;13371;52.080;5.624;2022-08-19T07:16:14;22.00;94.30
25450;DHT22;13371;52.080;5.624;2022-08-19T07:18:40;21.80;94.70
25450;DHT22;13371;52.080;5.624;2022-08-19T07:21:11;22.00;94.70
25450;DHT22;13371;52.080;5.624;2022-08-19T07:23:37;22.20;94.60
25450;DHT22;13371;52.080;5.624;2022-08-19T07:26:17;22.30;94.30
25450;DHT22;13371;52.080;5.624;2022-08-19T07:28:43;22.20;94.30
25450;DHT22;13371;52.080;5.624;2022-08-19T07:31:11;22.40;93.80
25450;DHT22;13371;52.080;5.624;2022-08-19T07:33:38;22.40;93.90
25450;DHT22;13371;52.080;5.624;2022-08-19T07:36:06;22.30;93.70
25450;DHT22;13371;52.080;5.624;2022-08-19T07:38:33;22.40;93.80
25450;DHT22;13371;52.080;5.624;2022-08-19T07:40:59;22.70;93.50
25450;DHT22;13371;52.080;5.624;2022-08-19T07:43:26;22.70;93.30
25450;DHT22;13371;52.080;5.624;2022-08-19T07:45:55;23.00;93.10
25450;DHT22;13371;52.080;5.624;2022-08-19T07:48:23;23.00;92.70
25450;DHT22;13371;52.080;5.624;2022-08-19T07:50:54;23.00;92.30
25450;DHT22;13371;52.080;5.624;2022-08-19T07:53:22;23.00;92.70
25450;DHT22;13371;52.080;5.624;2022-08-19T07:55:48;23.10;92.60
25450;DHT22;13371;52.080;5.624;2022-08-19T07:58:15;23.10;92.00
25450;DHT22;13371;52.080;5.624;2022-08-19T08:00:42;23.20;91.50
25450;DHT22;13371;52.080;5.624;2022-08-19T08:03:09;23.00;91.90
25450;DHT22;13371;52.080;5.624;2022-08-19T08:05:35;23.20;92.00
25450;DHT22;13371;52.080;5.624;2022-08-19T08:08:19;23.30;91.60
25450;DHT22;13371;52.080;5.624;2022-08-19T08:11:04;23.30;91.80
25450;DHT22;13371;52.080;5.624;2022-08-19T08:13:30;23.30;91.40
25450;DHT22;13371;52.080;5.624;2022-08-19T08:15:56;23.60;92.30
25450;DHT22;13371;52.080;5.624;2022-08-19T08:18:25;23.90;91.30
25450;DHT22;13371;52.080;5.624;2022-08-19T08:20:50;24.00;90.40
25450;DHT22;13371;52.080;5.624;2022-08-19T08:23:16;23.60;90.70
25450;DHT22;13371;52.080;5.624;2022-08-19T08:25:47;23.80;90.50
25450;DHT22;13371;52.080;5.624;2022-08-19T08:28:14;24.10;90.70
25450;DHT22;13371;52.080;5.624;2022-08-19T08:30:40;24.50;89.30
25450;DHT22;13371;52.080;5.624;2022-08-19T08:33:09;24.90;88.60
25450;DHT22;13371;52.080;5.624;2022-08-19T08:35:35;24.90;87.20
25450;DHT22;13371;52.080;5.624;2022-08-19T08:38:02;25.10;85.40
25450;DHT22;13371;52.080;5.624;2022-08-19T08:43:31;24.90;87.10
25450;DHT22;13371;52.080;5.624;2022-08-19T08:54:40;24.40;86.80
25450;DHT22;13371;52.080;5.624;2022-08-19T08:57:11;24.30;88.00
25450;DHT22;13371;52.080;5.624;2022-08-19T08:59:40;24.70;87.10
25450;DHT22;13371;52.080;5.624;2022-08-19T09:02:07;25.00;86.00
25450;DHT22;13371;52.080;5.624;2022-08-19T09:04:37;25.50;86.50
25450;DHT22;13371;52.080;5.624;2022-08-19T09:10:15;25.50;83.60
25450;DHT22;13371;52.080;5.624;2022-08-19T09:15:18;25.10;83.80
25450;DHT22;13371;52.080;5.624;2022-08-19T09:17:46;25.10;83.90
25450;DHT22;13371;52.080;5.624;2022-08-19T09:20:21;24.70;85.80
25450;DHT22;13371;52.080;5.624;2022-08-19T09:22:47;25.00;85.90
25450;DHT22;13371;52.080;5.624;2022-08-19T09:25:18;25.30;86.00
25450;DHT22;13371;52.080;5.624;2022-08-19T09:27:44;25.10;84.10
25450;DHT22;13371;52.080;5.624;2022-08-19T09:30:16;25.10;84.80
25450;DHT22;13371;52.080;5.624;2022-08-19T09:32:43;25.30;83.60
25450;DHT22;13371;52.080;5.624;2022-08-19T09:35:11;25.40;83.70
25450;DHT22;13371;52.080;5.624;2022-08-19T09:37:38;25.70;82.30
25450;DHT22;13371;52.080;5.624;2022-08-19T09:40:04;25.90;82.30
25450;DHT22;13371;52.080;5.624;2022-08-19T09:42:29;26.00;82.20
25450;DHT22;13371;52.080;5.624;2022-08-19T09:44:55;26.10;83.90
25450;DHT22;13371;52.080;5.624;2022-08-19T09:47:20;26.60;82.30
25450;DHT22;13371;52.080;5.624;2022-08-19T09:49:46;26.60;80.00
25450;DHT22;13371;52.080;5.624;2022-08-19T09:52:14;26.20;80.80
25450;DHT22;13371;52.080;5.624;2022-08-19T09:54:40;26.20;82.80
25450;DHT22;13371;52.080;5.624;2022-08-19T09:57:06;26.40;81.00
25450;DHT22;13371;52.080;5.624;2022-08-19T09:59:32;26.60;78.50
25450;DHT22;13371;52.080;5.624;2022-08-19T10:01:58;27.10;80.60
25450;DHT22;13371;52.080;5.624;2022-08-19T10:04:24;27.40;77.90
25450;DHT22;13371;52.080;5.624;2022-08-19T10:07:10;27.60;76.80
25450;DHT22;13371;52.080;5.624;2022-08-19T10:09:35;27.40;77.50
25450;DHT22;13371;52.080;5.624;2022-08-19T10:12:03;27.80;78.60
25450;DHT22;13371;52.080;5.624;2022-08-19T10:14:29;28.20;76.10
25450;DHT22;13371;52.080;5.624;2022-08-19T10:16:55;28.00;75.70
25450;DHT22;13371;52.080;5.624;2022-08-19T10:19:21;27.90;75.70
25450;DHT22;13371;52.080;5.624;2022-08-19T10:21:47;27.70;75.90
25450;DHT22;13371;52.080;5.624;2022-08-19T10:24:12;27.50;76.90
25450;DHT22;13371;52.080;5.624;2022-08-19T10:26:39;27.80;76.40
25450;DHT22;13371;52.080;5.624;2022-08-19T10:29:07;27.60;74.20
25450;DHT22;13371;52.080;5.624;2022-08-19T10:31:33;27.70;77.20
25450;DHT22;13371;52.080;5.624;2022-08-19T10:34:00;28.10;77.30
25450;DHT22;13371;52.080;5.624;2022-08-19T10:36:29;28.30;74.50
25450;DHT22;13371;52.080;5.624;2022-08-19T10:38:59;28.30;74.30
25450;DHT22;13371;52.080;5.624;2022-08-19T10:41:28;27.80;74.30
25450;DHT22;13371;52.080;5.624;2022-08-19T10:43:56;27.80;75.10
25450;DHT22;13371;52.080;5.624;2022-08-19T10:46:24;28.10;75.70
25450;DHT22;13371;52.080;5.624;2022-08-19T10:48:50;28.30;74.60
25450;DHT22;13371;52.080;5.624;2022-08-19T10:51:16;28.10;74.00
25450;DHT22;13371;52.080;5.624;2022-08-19T10:54:01;28.30;76.30
25450;DHT22;13371;52.080;5.624;2022-08-19T10:56:28;28.00;74.50
25450;DHT22;13371;52.080;5.624;2022-08-19T10:59:14;28.10;75.80
25450;DHT22;13371;52.080;5.624;2022-08-19T11:01:42;27.80;74.60
25450;DHT22;13371;52.080;5.624;2022-08-19T11:04:08;27.30;74.70
25450;DHT22;13371;52.080;5.624;2022-08-19T11:06:37;27.60;76.40
25450;DHT22;13371;52.080;5.624;2022-08-19T11:09:04;27.80;76.30
25450;DHT22;13371;52.080;5.624;2022-08-19T11:11:30;27.20;77.20
25450;DHT22;13371;52.080;5.624;2022-08-19T11:13:58;27.50;76.70
25450;DHT22;13371;52.080;5.624;2022-08-19T11:16:25;27.90;77.20
25450;DHT22;13371;52.080;5.624;2022-08-19T11:18:54;28.20;73.90
25450;DHT22;13371;52.080;5.624;2022-08-19T11:21:26;28.60;75.00
25450;DHT22;13371;52.080;5.624;2022-08-19T11:23:56;29.00;71.30
25450;DHT22;13371;52.080;5.624;2022-08-19T11:26:23;29.40;73.00
25450;DHT22;13371;52.080;5.624;2022-08-19T11:28:49;29.50;70.60
25450;DHT22;13371;52.080;5.624;2022-08-19T11:31:22;29.40;69.60
25450;DHT22;13371;52.080;5.624;2022-08-19T11:33:47;29.50;71.40
25450;DHT22;13371;52.080;5.624;2022-08-19T11:36:16;28.90;70.70
25450;DHT22;13371;52.080;5.624;2022-08-19T11:38:43;28.70;72.00
25450;DHT22;13371;52.080;5.624;2022-08-19T11:41:09;28.60;72.90
25450;DHT22;13371;52.080;5.624;2022-08-19T11:43:35;29.00;72.90
25450;DHT22;13371;52.080;5.624;2022-08-19T11:46:04;29.00;72.10
25450;DHT22;13371;52.080;5.624;2022-08-19T11:48:34;29.00;71.80
25450;DHT22;13371;52.080;5.624;2022-08-19T11:51:04;28.90;72.40
25450;DHT22;13371;52.080;5.624;2022-08-19T11:53:32;28.70;74.40
25450;DHT22;13371;52.080;5.624;2022-08-19T11:55:58;28.60;73.70
25450;DHT22;13371;52.080;5.624;2022-08-19T11:58:23;28.90;72.40
25450;DHT22;13371;52.080;5.624;2022-08-19T12:00:50;28.70;72.50
25450;DHT22;13371;52.080;5.624;2022-08-19T12:03:16;28.60;72.80
25450;DHT22;13371;52.080;5.624;2022-08-19T12:05:41;28.30;74.80
25450;DHT22;13371;52.080;5.624;2022-08-19T12:08:08;28.90;74.90
25450;DHT22;13371;52.080;5.624;2022-08-19T12:10:34;29.30;73.70
25450;DHT22;13371;52.080;5.624;2022-08-19T12:13:00;29.00;71.20
25450;DHT22;13371;52.080;5.624;2022-08-19T12:15:27;28.30;75.10
25450;DHT22;13371;52.080;5.624;2022-08-19T12:17:54;28.70;73.50
25450;DHT22;13371;52.080;5.624;2022-08-19T12:20:22;28.70;75.10
25450;DHT22;13371;52.080;5.624;2022-08-19T12:22:48;28.80;74.00
25450;DHT22;13371;52.080;5.624;2022-08-19T12:25:14;28.90;71.90
25450;DHT22;13371;52.080;5.624;2022-08-19T12:27:40;28.60;72.90
25450;DHT22;13371;52.080;5.624;2022-08-19T12:30:08;28.40;73.80
25450;DHT22;13371;52.080;5.624;2022-08-19T12:32:34;28.50;73.90
25450;DHT22;13371;52.080;5.624;2022-08-19T12:35:00;28.70;73.20
25450;DHT22;13371;52.080;5.624;2022-08-19T12:37:26;28.80;74.10
25450;DHT22;13371;52.080;5.624;2022-08-19T12:39:52;28.50;73.20
25450;DHT22;13371;52.080;5.624;2022-08-19T12:42:17;28.20;75.10
25450;DHT22;13371;52.080;5.624;2022-08-19T12:44:44;28.30;75.70
25450;DHT22;13371;52.080;5.624;2022-08-19T12:47:11;28.60;75.80
25450;DHT22;13371;52.080;5.624;2022-08-19T12:49:38;28.50;73.70
25450;DHT22;13371;52.080;5.624;2022-08-19T12:52:05;28.50;74.40
25450;DHT22;13371;52.080;5.624;2022-08-19T12:54:31;28.40;75.80
25450;DHT22;13371;52.080;5.624;2022-08-19T12:56:58;28.70;74.50
25450;DHT22;13371;52.080;5.624;2022-08-19T12:59:25;28.50;73.90
25450;DHT22;13371;52.080;5.624;2022-08-19T13:01:50;28.50;74.70
25450;DHT22;13371;52.080;5.624;2022-08-19T13:04:16;28.60;74.20
25450;DHT22;13371;52.080;5.624;2022-08-19T13:06:42;28.60;75.30
25450;DHT22;13371;52.080;5.624;2022-08-19T13:09:08;28.70;74.60
25450;DHT22;13371;52.080;5.624;2022-08-19T13:11:34;28.70;74.10
25450;DHT22;13371;52.080;5.624;2022-08-19T13:14:02;28.70;74.10
25450;DHT22;13371;52.080;5.624;2022-08-19T13:16:28;28.30;74.40
25450;DHT22;13371;52.080;5.624;2022-08-19T13:18:55;28.20;74.90
25450;DHT22;13371;52.080;5.624;2022-08-19T13:21:23;28.10;75.30
25450;DHT22;13371;52.080;5.624;2022-08-19T13:23:49;28.40;75.90
25450;DHT22;13371;52.080;5.624;2022-08-19T13:26:15;28.00;75.40
25450;DHT22;13371;52.080;5.624;2022-08-19T13:28:41;28.00;75.90
25450;DHT22;13371;52.080;5.624;2022-08-19T13:31:28;27.70;76.90
25450;DHT22;13371;52.080;5.624;2022-08-19T13:34:13;27.80;77.70
25450;DHT22;13371;52.080;5.624;2022-08-19T13:36:39;27.80;78.30
25450;DHT22;13371;52.080;5.624;2022-08-19T13:39:06;28.10;78.00
25450;DHT22;13371;52.080;5.624;2022-08-19T13:41:33;28.10;77.10
25450;DHT22;13371;52.080;5.624;2022-08-19T13:43:59;28.20;77.60
25450;DHT22;13371;52.080;5.624;2022-08-19T13:46:25;28.10;77.20
25450;DHT22;13371;52.080;5.624;2022-08-19T13:48:52;28.10;77.40
25450;DHT22;13371;52.080;5.624;2022-08-19T13:51:18;28.10;77.10
25450;DHT22;13371;52.080;5.624;2022-08-19T13:53:44;27.80;77.20
25450;DHT22;13371;52.080;5.624;2022-08-19T13:56:13;27.60;78.50
25450;DHT22;13371;52.080;5.624;2022-08-19T13:58:38;27.50;78.70
25450;DHT22;13371;52.080;5.624;2022-08-19T14:01:05;27.40;79.30
25450;DHT22;13371;52.080;5.624;2022-08-19T14:03:32;27.40;79.40
25450;DHT22;13371;52.080;5.624;2022-08-19T14:05:58;27.70;80.10
25450;DHT22;13371;52.080;5.624;2022-08-19T14:08:24;28.10;80.40
25450;DHT22;13371;52.080;5.624;2022-08-19T14:10:50;28.00;80.30
25450;DHT22;13371;52.080;5.624;2022-08-19T14:13:18;28.20;80.60
25450;DHT22;13371;52.080;5.624;2022-08-19T14:15:44;28.30;80.20
25450;DHT22;13371;52.080;5.624;2022-08-19T14:18:10;28.40;79.10
25450;DHT22;13371;52.080;5.624;2022-08-19T14:20:36;28.00;80.00
25450;DHT22;13371;52.080;5.624;2022-08-19T14:23:02;27.80;80.90
25450;DHT22;13371;52.080;5.624;2022-08-19T14:25:29;27.80;81.00
25450;DHT22;13371;52.080;5.624;2022-08-19T14:27:55;27.80;81.30
25450;DHT22;13371;52.080;5.624;2022-08-19T14:30:25;27.50;85.60
25450;DHT22;13371;52.080;5.624;2022-08-19T14:32:52;27.20;88.90
25450;DHT22;13371;52.080;5.624;2022-08-19T14:35:18;26.70;88.90
25450;DHT22;13371;52.080;5.624;2022-08-19T14:37:44;26.00;90.80
25450;DHT22;13371;52.080;5.624;2022-08-19T14:40:12;25.80;91.80
25450;DHT22;13371;52.080;5.624;2022-08-19T14:42:37;25.70;92.00
25450;DHT22;13371;52.080;5.624;2022-08-19T14:45:03;25.70;92.10
25450;DHT22;13371;52.080;5.624;2022-08-19T14:47:30;25.70;92.60
25450;DHT22;13371;52.080;5.624;2022-08-19T14:49:56;25.70;92.60
25450;DHT22;13371;52.080;5.624;2022-08-19T14:52:21;25.80;92.00
25450;DHT22;13371;52.080;5.624;2022-08-19T14:54:47;25.60;92.40
25450;DHT22;13371;52.080;5.624;2022-08-19T14:57:14;25.60;93.10
25450;DHT22;13371;52.080;5.624;2022-08-19T14:59:40;25.50;92.50
25450;DHT22;13371;52.080;5.624;2022-08-19T15:02:06;25.60;92.50
25450;DHT22;13371;52.080;5.624;2022-08-19T15:04:31;25.50;92.10
25450;DHT22;13371;52.080;5.624;2022-08-19T15:06:57;25.30;92.70
25450;DHT22;13371;52.080;5.624;2022-08-19T15:09:23;25.60;92.90
25450;DHT22;13371;52.080;5.624;2022-08-19T15:11:49;25.50;92.50
25450;DHT22;13371;52.080;5.624;2022-08-19T15:14:15;25.40;92.80
25450;DHT22;13371;52.080;5.624;2022-08-19T15:16:42;25.20;92.70
25450;DHT22;13371;52.080;5.624;2022-08-19T15:19:08;25.30;92.60
25450;DHT22;13371;52.080;5.624;2022-08-19T15:21:33;25.30;93.10
25450;DHT22;13371;52.080;5.624;2022-08-19T15:23:59;25.60;93.20
25450;DHT22;13371;52.080;5.624;2022-08-19T15:26:26;25.60;92.50
25450;DHT22;13371;52.080;5.624;2022-08-19T15:28:56;25.50;92.40
25450;DHT22;13371;52.080;5.624;2022-08-19T15:31:22;25.60;92.60
25450;DHT22;13371;52.080;5.624;2022-08-19T15:33:48;25.80;92.70
25450;DHT22;13371;52.080;5.624;2022-08-19T15:36:15;25.50;92.40
25450;DHT22;13371;52.080;5.624;2022-08-19T15:38:41;25.70;92.90
25450;DHT22;13371;52.080;5.624;2022-08-19T15:41:20;26.00;92.50
25450;DHT22;13371;52.080;5.624;2022-08-19T15:44:00;25.90;92.30
25450;DHT22;13371;52.080;5.624;2022-08-19T15:46:31;25.80;92.40
25450;DHT22;13371;52.080;5.624;2022-08-19T15:48:57;25.70;92.20
25450;DHT22;13371;52.080;5.624;2022-08-19T15:51:24;25.80;92.20